Time;durP1;ratioP1;P1;durP2;ratioP2;P2;SDS_P1;SDS_P2;PMS_P1;PMS_P2;Temp;Humidity;BMP_temperature;BMP_pressure;BME280_temperature;BME280_humidity;BME280_pressure;Samples;Min_cycle;Max_cycle;Signal;HPM_P1;HPM_P2
2023/04/15 00:03:05;;;;;;;;;;;6.42;34.41;;;;;;2673766;76;20296;-92
2023/04/15 00:06:33;;;;;;;;;;;6.45;34.11;;;;;;2674484;76;20310;-92
2023/04/15 00:10:01;;;;;;;;;;;6.45;34.08;;;;;;2675966;76;20333;-92
2023/04/15 00:13:29;;;;;;;;;;;6.46;33.95;;;;;;2675432;76;20359;-91
2023/04/15 00:17:02;;;;;;;;;;;6.38;34.82;;;;;;2675231;76;20320;-92
2023/04/15 00:20:27;;;;;;;;;;;6.46;34.41;;;;;;2675118;76;20313;-93
2023/04/15 00:23:58;;;;;;;;;;;6.49;34.31;;;;;;2674403;76;20790;-92
2023/04/15 00:27:27;;;;;;;;;;;6.55;34.05;;;;;;2674069;76;20339;-91
2023/04/15 00:30:55;;;;;;;;;;;6.57;33.88;;;;;;2674859;76;20808;-91
2023/04/15 00:34:23;;;;;;;;;;;6.53;33.56;;;;;;2674703;76;20321;-91
2023/04/15 00:37:51;;;;;;;;;;;6.46;33.70;;;;;;2675071;76;20327;-91
2023/04/15 00:41:26;;;;;;;;;;;6.46;34.13;;;;;;2674162;76;20310;-91
2023/04/15 00:44:56;;;;;;;;;;;6.46;34.39;;;;;;2673811;76;20339;-90
2023/04/15 00:48:24;;;;;;;;;;;6.43;34.31;;;;;;2674733;76;20894;-90
2023/04/15 00:51:52;;;;;;;;;;;6.39;34.53;;;;;;2674058;76;20789;-91
2023/04/15 00:55:20;;;;;;;;;;;6.46;34.45;;;;;;2673499;76;20751;-90
2023/04/15 00:58:49;;;;;;;;;;;6.46;34.07;;;;;;2674222;76;20357;-91
2023/04/15 01:02:17;;;;;;;;;;;6.52;34.06;;;;;;2673528;76;20310;-92
2023/04/15 01:05:45;;;;;;;;;;;6.53;34.08;;;;;;2674286;76;20315;-90
2023/04/15 01:09:13;;;;;;;;;;;6.43;34.41;;;;;;2672878;76;20296;-92
2023/04/15 01:12:42;;;;;;;;;;;6.46;34.47;;;;;;2672504;76;20350;-92
2023/04/15 01:16:10;;;;;;;;;;;6.49;34.25;;;;;;2674436;76;20290;-91
2023/04/15 01:19:39;;;;;;;;;;;6.51;34.27;;;;;;2673687;76;20296;-91
2023/04/15 01:23:07;;;;;;;;;;;6.54;34.06;;;;;;2673361;76;20302;-91
2023/04/15 01:26:35;;;;;;;;;;;6.50;33.78;;;;;;2673858;76;20294;-91
2023/04/15 01:30:04;;;;;;;;;;;6.54;33.99;;;;;;2674616;76;20294;-90
2023/04/15 01:33:32;;;;;;;;;;;6.50;33.83;;;;;;2674779;76;20796;-90
2023/04/15 01:37:00;;;;;;;;;;;6.52;33.85;;;;;;2674066;76;20333;-90
2023/04/15 01:40:28;;;;;;;;;;;6.53;33.89;;;;;;2674295;76;20301;-90
2023/04/15 01:43:56;;;;;;;;;;;6.52;33.99;;;;;;2674436;76;20302;-92
2023/04/15 01:47:24;;;;;;;;;;;6.50;33.85;;;;;;2675257;76;20349;-92
2023/04/15 01:50:52;;;;;;;;;;;6.50;33.74;;;;;;2674103;76;20380;-92
2023/04/15 01:54:21;;;;;;;;;;;6.50;33.80;;;;;;2674379;76;20299;-92
2023/04/15 01:57:49;;;;;;;;;;;6.49;33.79;;;;;;2673558;76;20758;-91
2023/04/15 02:01:20;;;;;;;;;;;6.46;33.86;;;;;;2674208;76;20322;-92
2023/04/15 02:04:49;;;;;;;;;;;6.46;34.06;;;;;;2673277;76;20786;-91
2023/04/15 02:08:17;;;;;;;;;;;6.40;34.28;;;;;;2674252;76;20296;-91
2023/04/15 02:11:45;;;;;;;;;;;6.42;34.67;;;;;;2674764;76;20322;-91
2023/04/15 02:15:13;;;;;;;;;;;6.41;34.98;;;;;;2673263;76;20309;-91
2023/04/15 02:18:41;;;;;;;;;;;6.41;35.21;;;;;;2673035;76;20348;-91
2023/04/15 02:22:14;;;;;;;;;;;6.38;35.51;;;;;;2672632;76;20321;-93
2023/04/15 02:25:39;;;;;;;;;;;6.37;36.30;;;;;;2673390;76;20309;-91
2023/04/15 02:29:07;;;;;;;;;;;6.42;36.24;;;;;;2673028;76;20312;-90
2023/04/15 02:32:36;;;;;;;;;;;6.43;36.36;;;;;;2673365;76;20315;-90
2023/04/15 02:36:05;;;;;;;;;;;6.45;36.55;;;;;;2673236;76;20432;-91
2023/04/15 02:39:33;;;;;;;;;;;6.46;36.52;;;;;;2673347;76;20807;-91
2023/04/15 02:43:01;;;;;;;;;;;6.36;36.90;;;;;;2673619;76;20320;-91
2023/04/15 02:46:29;;;;;;;;;;;6.28;37.06;;;;;;2673800;76;20323;-91
2023/04/15 02:49:59;;;;;;;;;;;6.33;37.45;;;;;;2672869;76;20303;-92
2023/04/15 02:53:27;;;;;;;;;;;6.20;37.94;;;;;;2672859;76;20317;-92
2023/04/15 02:56:55;;;;;;;;;;;6.25;37.82;;;;;;2673851;76;20306;-92
2023/04/15 03:00:24;;;;;;;;;;;6.26;37.54;;;;;;2672858;76;20297;-91
2023/04/15 03:03:52;;;;;;;;;;;6.22;37.51;;;;;;2674085;76;20835;-92
2023/04/15 03:07:20;;;;;;;;;;;6.20;37.45;;;;;;2671778;76;20797;-92
2023/04/15 03:10:51;;;;;;;;;;;6.25;37.89;;;;;;2673018;76;20339;-92
2023/04/15 03:14:18;;;;;;;;;;;6.30;37.33;;;;;;2673908;76;20310;-92
2023/04/15 03:17:48;;;;;;;;;;;6.23;37.21;;;;;;2672907;76;20304;-91
2023/04/15 03:21:16;;;;;;;;;;;6.28;37.25;;;;;;2673688;76;20326;-91
2023/04/15 03:24:44;;;;;;;;;;;6.37;37.01;;;;;;2673788;76;20331;-91
2023/04/15 03:28:12;;;;;;;;;;;6.45;36.57;;;;;;2673357;76;22236;-90
2023/04/15 03:31:41;;;;;;;;;;;6.43;36.27;;;;;;2673399;76;20342;-91
2023/04/15 03:35:09;;;;;;;;;;;6.44;35.72;;;;;;2674005;76;20768;-91
2023/04/15 03:38:37;;;;;;;;;;;6.25;35.79;;;;;;2672836;76;20765;-91
2023/04/15 03:42:05;;;;;;;;;;;6.28;36.19;;;;;;2673973;76;20331;-90
2023/04/15 03:45:33;;;;;;;;;;;6.39;36.11;;;;;;2673641;76;20326;-92
2023/04/15 03:49:04;;;;;;;;;;;6.34;35.63;;;;;;2673035;76;20366;-91
2023/04/15 03:52:31;;;;;;;;;;;6.38;35.60;;;;;;2673992;76;20308;-91
2023/04/15 03:55:59;;;;;;;;;;;6.40;35.47;;;;;;2675068;76;20323;-90
2023/04/15 03:59:27;;;;;;;;;;;6.37;35.42;;;;;;2674323;76;20310;-90
2023/04/15 04:02:55;;;;;;;;;;;6.35;35.40;;;;;;2673759;76;20338;-90
2023/04/15 04:06:29;;;;;;;;;;;6.38;35.41;;;;;;2674861;76;20312;-92
2023/04/15 04:09:58;;;;;;;;;;;6.37;35.28;;;;;;2674261;76;20298;-92
2023/04/15 04:13:26;;;;;;;;;;;6.36;35.20;;;;;;2673840;76;20383;-92
2023/04/15 04:16:54;;;;;;;;;;;6.37;35.30;;;;;;2674866;76;20303;-91
2023/04/15 04:20:22;;;;;;;;;;;6.35;35.22;;;;;;2675160;76;20358;-92
2023/04/15 04:23:53;;;;;;;;;;;6.27;35.21;;;;;;2674988;76;20331;-92
2023/04/15 04:27:23;;;;;;;;;;;6.25;35.26;;;;;;2675687;76;20306;-93
2023/04/15 04:30:51;;;;;;;;;;;6.28;35.15;;;;;;2676107;76;20883;-93
2023/04/15 04:34:23;;;;;;;;;;;6.29;35.12;;;;;;2675608;76;20729;-92
2023/04/15 04:37:51;;;;;;;;;;;6.28;35.18;;;;;;2675863;76;20299;-93
2023/04/15 04:41:21;;;;;;;;;;;6.30;35.07;;;;;;2675877;76;20340;-92
2023/04/15 04:44:50;;;;;;;;;;;6.26;34.87;;;;;;2676047;76;20337;-92
2023/04/15 04:48:18;;;;;;;;;;;6.30;34.86;;;;;;2676689;76;20295;-92
2023/04/15 04:51:47;;;;;;;;;;;6.40;34.87;;;;;;2676355;76;20298;-92
2023/04/15 04:55:15;;;;;;;;;;;6.40;34.52;;;;;;2675853;76;20328;-92
2023/04/15 04:58:44;;;;;;;;;;;6.43;34.55;;;;;;2675884;76;20373;-92
2023/04/15 05:02:12;;;;;;;;;;;6.39;34.53;;;;;;2675267;76;20373;-92
2023/04/15 05:05:40;;;;;;;;;;;6.43;34.77;;;;;;2675719;76;20739;-92
2023/04/15 05:09:11;;;;;;;;;;;6.52;34.77;;;;;;2675372;76;20342;-91
2023/04/15 05:12:42;;;;;;;;;;;6.56;34.69;;;;;;2675626;76;20368;-92
2023/04/15 05:16:11;;;;;;;;;;;6.50;34.41;;;;;;2675412;76;20338;-92
2023/04/15 05:19:40;;;;;;;;;;;6.54;34.83;;;;;;2675284;76;20348;-92
2023/04/15 05:23:11;;;;;;;;;;;6.61;34.64;;;;;;2675341;76;20324;-92
2023/04/15 05:26:39;;;;;;;;;;;6.63;34.41;;;;;;2675686;76;20332;-92
2023/04/15 05:30:09;;;;;;;;;;;6.52;33.84;;;;;;2675886;76;20336;-92
2023/04/15 05:33:37;;;;;;;;;;;6.66;34.21;;;;;;2675683;76;20747;-92
2023/04/15 05:37:05;;;;;;;;;;;6.70;34.14;;;;;;2675473;76;20341;-93
2023/04/15 05:40:33;;;;;;;;;;;6.68;34.02;;;;;;2675559;76;20357;-92
2023/04/15 05:44:04;;;;;;;;;;;6.69;33.53;;;;;;2675910;76;20331;-92
2023/04/15 05:47:32;;;;;;;;;;;6.74;33.57;;;;;;2675476;76;20343;-92
2023/04/15 05:51:02;;;;;;;;;;;6.74;33.60;;;;;;2675482;76;20349;-92
2023/04/15 05:54:33;;;;;;;;;;;6.80;33.46;;;;;;2675553;76;20362;-93
2023/04/15 05:58:03;;;;;;;;;;;6.79;33.12;;;;;;2678197;76;20321;-93
2023/04/15 06:01:43;;;;;;;;;;;6.72;31.76;;;;;;2679206;76;20292;-92
2023/04/15 06:05:10;;;;;;;;;;;6.80;32.75;;;;;;2677948;76;20325;-93
2023/04/15 06:08:43;;;;;;;;;;;7.02;32.56;;;;;;2680494;76;20285;-94
2023/04/15 06:12:30;;;;;;;;;;;7.23;32.36;;;;;;2682953;76;20376;-94
2023/04/15 06:15:57;;;;;;;;;;;7.19;31.32;;;;;;2679426;76;20323;-94
2023/04/15 06:19:26;;;;;;;;;;;7.14;29.64;;;;;;2676874;76;20393;-94
2023/04/15 06:23:02;;;;;;;;;;;7.29;29.25;;;;;;2675369;76;20318;-93
2023/04/15 06:26:30;;;;;;;;;;;7.56;29.16;;;;;;2674751;76;20343;-92
2023/04/15 06:29:59;;;;;;;;;;;7.60;27.25;;;;;;2674956;76;20344;-92
2023/04/15 06:33:27;;;;;;;;;;;8.13;28.11;;;;;;2674710;76;20777;-93
2023/04/15 06:37:00;;;;;;;;;;;8.20;25.50;;;;;;2674896;76;20301;-92
2023/04/15 06:40:25;;;;;;;;;;;8.39;24.36;;;;;;2674433;76;20308;-92
2023/04/15 06:43:54;;;;;;;;;;;8.82;23.89;;;;;;2674508;76;20358;-92
2023/04/15 06:47:25;;;;;;;;;;;9.08;22.48;;;;;;2674496;76;20351;-92
2023/04/15 06:50:53;;;;;;;;;;;9.48;22.41;;;;;;2674428;76;20351;-91
2023/04/15 06:54:21;;;;;;;;;;;9.85;21.48;;;;;;2674235;76;20358;-92
2023/04/15 06:57:55;;;;;;;;;;;9.60;18.58;;;;;;2674264;76;20324;-91
2023/04/15 07:01:20;;;;;;;;;;;9.44;17.58;;;;;;2673629;76;20350;-92
2023/04/15 07:04:48;;;;;;;;;;;9.23;16.67;;;;;;2674402;76;20380;-92
2023/04/15 07:08:16;;;;;;;;;;;9.01;15.54;;;;;;2674328;76;20323;-92
2023/04/15 07:11:50;;;;;;;;;;;9.24;15.50;;;;;;2675000;76;20392;-92
2023/04/15 07:15:21;;;;;;;;;;;9.52;15.45;;;;;;2673579;76;20426;-92
2023/04/15 07:18:49;;;;;;;;;;;9.52;13.71;;;;;;2673821;76;20315;-91
2023/04/15 07:22:17;;;;;;;;;;;9.95;13.68;;;;;;2673296;76;20303;-91
2023/04/15 07:25:46;;;;;;;;;;;9.65;10.85;;;;;;2674165;76;20767;-92
2023/04/15 07:29:14;;;;;;;;;;;9.40;9.97;;;;;;2673340;76;20370;-92
2023/04/15 07:32:43;;;;;;;;;;;9.34;9.80;;;;;;2673652;76;20308;-91
2023/04/15 07:36:11;;;;;;;;;;;9.91;9.79;;;;;;2672530;76;20309;-92
2023/04/15 07:39:39;;;;;;;;;;;9.99;9.04;;;;;;2672326;76;20666;-91
2023/04/15 07:43:08;;;;;;;;;;;10.33;8.66;;;;;;2672740;76;20327;-92
2023/04/15 07:46:40;;;;;;;;;;;10.97;8.91;;;;;;2674357;76;20312;-91
2023/04/15 07:50:08;;;;;;;;;;;10.79;7.21;;;;;;2673354;76;20353;-90
2023/04/15 07:53:41;;;;;;;;;;;10.86;6.38;;;;;;2674027;76;20316;-90
2023/04/15 07:57:06;;;;;;;;;;;10.98;5.31;;;;;;2674493;76;20768;-90
2023/04/15 08:00:37;;;;;;;;;;;11.26;5.09;;;;;;2674513;76;20334;-90
2023/04/15 08:04:06;;;;;;;;;;;11.41;5.05;;;;;;2674547;76;20337;-90
2023/04/15 08:07:35;;;;;;;;;;;11.61;5.70;;;;;;2674503;76;20314;-90
2023/04/15 08:11:08;;;;;;;;;;;11.43;4.50;;;;;;2674597;76;20345;-91
2023/04/15 08:14:42;;;;;;;;;;;11.48;4.28;;;;;;2674508;76;20332;-88
2023/04/15 08:18:10;;;;;;;;;;;11.37;2.84;;;;;;2674947;76;20353;-90
2023/04/15 08:21:39;;;;;;;;;;;11.39;2.62;;;;;;2674064;76;20361;-90
2023/04/15 08:25:09;;;;;;;;;;;11.34;2.58;;;;;;2673975;76;20798;-90
2023/04/15 08:28:37;;;;;;;;;;;11.68;4.00;;;;;;2673700;76;20313;-90
2023/04/15 08:32:10;;;;;;;;;;;11.14;3.19;;;;;;2671748;76;20356;-94
2023/04/15 08:35:37;;;;;;;;;;;10.70;3.48;;;;;;2673218;76;20361;-91
2023/04/15 08:39:07;;;;;;;;;;;11.03;4.99;;;;;;2673633;76;20321;-91
2023/04/15 08:42:36;;;;;;;;;;;11.27;5.45;;;;;;2673458;76;20319;-91
2023/04/15 08:46:12;;;;;;;;;;;11.29;4.99;;;;;;2673078;76;20315;-91
2023/04/15 08:49:37;;;;;;;;;;;11.09;4.44;;;;;;2674621;76;20346;-91
2023/04/15 08:53:06;;;;;;;;;;;11.34;4.66;;;;;;2673096;76;20816;-91
2023/04/15 08:56:35;;;;;;;;;;;11.48;4.26;;;;;;2673648;76;20366;-90
2023/04/15 09:00:04;;;;;;;;;;;11.90;5.04;;;;;;2674255;76;20319;-90
2023/04/15 09:03:39;;;;;;;;;;;11.72;3.26;;;;;;2673958;76;20296;-91
2023/04/15 09:07:02;;;;;;;;;;;11.71;2.36;;;;;;2673186;76;20338;-90
2023/04/15 09:10:30;;;;;;;;;;;11.82;2.68;;;;;;2674482;76;20340;-91
2023/04/15 09:14:06;;;;;;;;;;;12.12;2.94;;;;;;2674051;76;20312;-91
2023/04/15 09:17:41;;;;;;;;;;;12.07;1.90;;;;;;2673725;76;20370;-91
2023/04/15 09:21:11;;;;;;;;;;;11.85;1.59;;;;;;2673902;76;20333;-92
2023/04/15 09:24:41;;;;;;;;;;;11.78;2.04;;;;;;2673761;76;20382;-92
2023/04/15 09:28:09;;;;;;;;;;;11.89;2.89;;;;;;2674430;76;20312;-89
2023/04/15 09:31:37;;;;;;;;;;;11.29;2.64;;;;;;2673007;76;20328;-89
2023/04/15 09:35:06;;;;;;;;;;;11.77;4.35;;;;;;2673080;76;20779;-91
2023/04/15 09:38:34;;;;;;;;;;;11.54;2.48;;;;;;2673036;76;20795;-90
2023/04/15 09:42:03;;;;;;;;;;;11.77;3.24;;;;;;2673534;76;20780;-91
2023/04/15 09:45:33;;;;;;;;;;;11.62;3.28;;;;;;2673561;76;20848;-91
2023/04/15 09:49:03;;;;;;;;;;;11.78;3.82;;;;;;2674129;76;20757;-89
2023/04/15 09:52:31;;;;;;;;;;;12.06;3.77;;;;;;2671768;76;20779;-91
2023/04/15 09:56:02;;;;;;;;;;;12.14;3.91;;;;;;2671971;76;20383;-90
2023/04/15 09:59:31;;;;;;;;;;;12.20;3.77;;;;;;2673354;76;20308;-90
2023/04/15 10:03:02;;;;;;;;;;;11.99;2.93;;;;;;2674774;76;20346;-89
2023/04/15 10:06:31;;;;;;;;;;;11.55;2.12;;;;;;2673122;76;20292;-89
2023/04/15 10:10:01;;;;;;;;;;;11.75;2.00;;;;;;2675365;76;20301;-88
2023/04/15 10:13:31;;;;;;;;;;;11.99;1.80;;;;;;2674010;76;20322;-88
2023/04/15 10:16:59;;;;;;;;;;;12.26;1.92;;;;;;2673829;76;20311;-88
2023/04/15 10:20:27;;;;;;;;;;;12.17;1.09;;;;;;2676360;76;20338;-89
2023/04/15 10:23:55;;;;;;;;;;;12.15;1.42;;;;;;2675016;76;20382;-88
2023/04/15 10:27:23;;;;;;;;;;;12.27;2.01;;;;;;2674471;76;20346;-88
2023/04/15 10:30:52;;;;;;;;;;;12.22;1.88;;;;;;2674074;76;20311;-89
2023/04/15 10:34:20;;;;;;;;;;;12.27;1.42;;;;;;2674362;76;20387;-89
2023/04/15 10:37:48;;;;;;;;;;;12.25;1.74;;;;;;2673729;76;20835;-89
2023/04/15 10:41:16;;;;;;;;;;;11.98;1.38;;;;;;2673340;76;20346;-88
2023/04/15 10:44:44;;;;;;;;;;;11.63;2.12;;;;;;2673621;76;20420;-88
2023/04/15 10:48:12;;;;;;;;;;;12.04;3.28;;;;;;2674676;76;20933;-88
2023/04/15 10:51:41;;;;;;;;;;;11.53;2.26;;;;;;2673641;76;20761;-89
2023/04/15 10:55:09;;;;;;;;;;;11.36;2.61;;;;;;2672299;76;20591;-88
2023/04/15 10:58:37;;;;;;;;;;;11.29;2.59;;;;;;2674722;76;20337;-88
2023/04/15 11:02:11;;;;;;;;;;;11.20;2.95;;;;;;2675488;76;20375;-88
2023/04/15 11:05:39;;;;;;;;;;;11.20;3.83;;;;;;2675754;76;20321;-88
2023/04/15 11:09:08;;;;;;;;;;;11.41;4.19;;;;;;2675226;76;20320;-88
2023/04/15 11:12:38;;;;;;;;;;;11.17;3.27;;;;;;2674363;76;20313;-88
2023/04/15 11:16:06;;;;;;;;;;;10.90;3.03;;;;;;2675331;76;20313;-88
2023/04/15 11:19:34;;;;;;;;;;;11.14;3.83;;;;;;2677960;76;20318;-88
2023/04/15 11:23:02;;;;;;;;;;;11.37;4.67;;;;;;2677580;76;20313;-88
2023/04/15 11:26:31;;;;;;;;;;;11.16;4.84;;;;;;2676031;76;20583;-88
2023/04/15 11:29:59;;;;;;;;;;;11.14;5.05;;;;;;2673895;76;20325;-88
2023/04/15 11:33:27;;;;;;;;;;;11.10;5.44;;;;;;2676459;76;20329;-88
2023/04/15 11:37:42;;;;;;;;;;;10.60;3.96;;;;;;2675853;76;20369;-89
2023/04/15 11:40:48;;;;;;;;;;;10.26;4.30;;;;;;2674246;76;20750;-88
2023/04/15 11:48:23;;;;;;;;;;;9.80;5.93;;;;;;2673665;76;20388;-88
2023/04/15 11:51:48;;;;;;;;;;;9.90;7.85;;;;;;2674578;76;20317;-87
2023/04/15 11:55:17;;;;;;;;;;;9.71;7.99;;;;;;2675947;76;20402;-88
2023/04/15 11:58:57;;;;;;;;;;;;;;;;;;;;;
2023/04/15 12:02:17;;;;;;;;;;;9.66;8.18;;;;;;2670730;76;20824;-88
2023/04/15 12:05:48;;;;;;;;;;;9.69;8.27;;;;;;2671977;76;20347;-90
2023/04/15 12:09:18;;;;;;;;;;;9.93;9.17;;;;;;2671964;76;20772;-88
2023/04/15 12:12:46;;;;;;;;;;;9.70;7.73;;;;;;2671359;76;20336;-88
2023/04/15 12:16:18;;;;;;;;;;;9.64;8.15;;;;;;2672255;76;20356;-90
2023/04/15 12:23:29;;;;;;;;;;;9.64;9.11;;;;;;2673979;76;20344;-90
2023/04/15 12:26:57;;;;;;;;;;;9.56;8.95;;;;;;2673713;76;20780;-90
2023/04/15 12:30:26;;;;;;;;;;;9.64;9.56;;;;;;2678339;76;20382;-90
2023/04/15 12:33:57;;;;;;;;;;;9.52;8.56;;;;;;2673674;76;20363;-89
2023/04/15 12:37:26;;;;;;;;;;;9.47;6.76;;;;;;2673484;76;20753;-89
2023/04/15 12:40:55;;;;;;;;;;;9.68;7.24;;;;;;2674188;76;20752;-88
2023/04/15 12:44:24;;;;;;;;;;;9.61;5.38;;;;;;2676153;76;20609;-88
2023/04/15 12:47:52;;;;;;;;;;;9.77;6.30;;;;;;2676703;76;20301;-87
2023/04/15 12:51:20;;;;;;;;;;;9.78;7.62;;;;;;2675935;76;20434;-87
2023/04/15 12:54:48;;;;;;;;;;;9.78;9.20;;;;;;2674375;76;20837;-88
2023/04/15 12:58:16;;;;;;;;;;;9.70;10.43;;;;;;2674125;76;20761;-89
2023/04/15 13:01:45;;;;;;;;;;;9.71;10.60;;;;;;2672516;76;20354;-90
2023/04/15 13:05:14;;;;;;;;;;;9.83;10.53;;;;;;2673036;76;20788;-90
2023/04/15 13:08:42;;;;;;;;;;;9.65;8.92;;;;;;2673179;76;20302;-90
2023/04/15 13:12:20;;;;;;;;;;;10.04;9.08;;;;;;2672744;76;20312;-89
2023/04/15 13:15:46;;;;;;;;;;;10.18;8.95;;;;;;2673707;76;20363;-90
2023/04/15 13:19:14;;;;;;;;;;;10.33;8.82;;;;;;2673993;76;20312;-89
2023/04/15 13:22:42;;;;;;;;;;;10.30;7.66;;;;;;2673289;76;20313;-89
2023/04/15 13:26:11;;;;;;;;;;;10.79;8.54;;;;;;2672322;76;20516;-89
2023/04/15 13:29:39;;;;;;;;;;;10.84;7.69;;;;;;2674230;76;20759;-90
2023/04/15 13:33:07;;;;;;;;;;;10.62;6.92;;;;;;2673684;76;20326;-89
2023/04/15 13:36:35;;;;;;;;;;;10.53;7.59;;;;;;2673260;76;20350;-89
2023/04/15 13:40:06;;;;;;;;;;;10.19;7.40;;;;;;2672850;76;20793;-88
2023/04/15 13:43:33;;;;;;;;;;;9.92;7.34;;;;;;2673136;76;20332;-89
2023/04/15 13:47:01;;;;;;;;;;;9.72;6.45;;;;;;2670825;76;20349;-89
2023/04/15 13:50:29;;;;;;;;;;;9.59;5.44;;;;;;2672246;76;20376;-89
2023/04/15 13:53:57;;;;;;;;;;;9.33;4.39;;;;;;2673601;76;20318;-89
2023/04/15 13:57:25;;;;;;;;;;;9.18;5.15;;;;;;2671814;76;20808;-89
2023/04/15 14:00:56;;;;;;;;;;;9.15;6.48;;;;;;2672310;76;20798;-89
2023/04/15 14:04:24;;;;;;;;;;;9.45;6.76;;;;;;2671684;76;20786;-89
2023/04/15 14:07:52;;;;;;;;;;;9.56;6.37;;;;;;2672421;76;20324;-88
2023/04/15 14:11:21;;;;;;;;;;;9.69;5.95;;;;;;2671494;76;20322;-88
2023/04/15 14:14:49;;;;;;;;;;;9.75;5.44;;;;;;2675450;76;20384;-88
2023/04/15 14:18:17;;;;;;;;;;;9.88;5.42;;;;;;2675035;76;20394;-88
2023/04/15 14:21:45;;;;;;;;;;;9.92;4.93;;;;;;2675268;76;20330;-88
2023/04/15 14:25:13;;;;;;;;;;;9.82;4.61;;;;;;2673843;76;20314;-88
2023/04/15 14:28:43;;;;;;;;;;;9.76;5.43;;;;;;2675135;76;20415;-88
2023/04/15 14:32:11;;;;;;;;;;;9.81;6.87;;;;;;2674480;76;20344;-87
2023/04/15 14:35:39;;;;;;;;;;;9.97;8.41;;;;;;2674440;76;20359;-88
2023/04/15 14:39:12;;;;;;;;;;;10.05;9.25;;;;;;2674912;76;20332;-86
2023/04/15 14:42:40;;;;;;;;;;;10.18;9.16;;;;;;2674388;76;20362;-87
2023/04/15 14:46:08;;;;;;;;;;;10.19;9.19;;;;;;2674313;76;20309;-87
2023/04/15 14:49:36;;;;;;;;;;;10.21;8.53;;;;;;2674031;76;20341;-87
2023/04/15 14:53:04;;;;;;;;;;;10.42;9.93;;;;;;2674634;76;20305;-87
2023/04/15 14:56:32;;;;;;;;;;;9.98;9.18;;;;;;2675205;76;20313;-88
2023/04/15 15:00:00;;;;;;;;;;;9.53;9.75;;;;;;2675266;76;20371;-87
2023/04/15 15:03:28;;;;;;;;;;;9.22;10.85;;;;;;2673318;76;20319;-88
2023/04/15 15:06:58;;;;;;;;;;;8.86;10.09;;;;;;2674452;76;20295;-88
2023/04/15 15:10:26;;;;;;;;;;;8.77;11.61;;;;;;2674507;76;20321;-89
2023/04/15 15:13:55;;;;;;;;;;;8.82;12.68;;;;;;2675238;76;20347;-89
2023/04/15 15:17:23;;;;;;;;;;;8.60;12.88;;;;;;2673900;76;20329;-88
2023/04/15 15:20:52;;;;;;;;;;;8.48;13.29;;;;;;2673971;76;20315;-89
2023/04/15 15:24:23;;;;;;;;;;;8.37;13.36;;;;;;2673506;76;20405;-89
2023/04/15 15:27:51;;;;;;;;;;;8.18;13.66;;;;;;2672472;76;20972;-89
2023/04/15 15:31:19;;;;;;;;;;;8.36;14.35;;;;;;2671304;76;20381;-89
2023/04/15 15:34:47;;;;;;;;;;;8.27;14.33;;;;;;2672783;76;20333;-89
2023/04/15 15:38:15;;;;;;;;;;;8.30;14.70;;;;;;2673191;76;20328;-89
2023/04/15 15:41:43;;;;;;;;;;;8.46;14.87;;;;;;2672310;76;20359;-89
2023/04/15 15:45:11;;;;;;;;;;;8.35;14.65;;;;;;2671562;76;20359;-89
2023/04/15 15:48:39;;;;;;;;;;;8.24;14.52;;;;;;2671896;76;20341;-89
2023/04/15 15:52:07;;;;;;;;;;;8.35;14.69;;;;;;2672686;76;20770;-89
2023/04/15 15:55:35;;;;;;;;;;;8.36;14.85;;;;;;2671552;76;20345;-89
2023/04/15 15:59:04;;;;;;;;;;;8.37;14.80;;;;;;2673076;76;20373;-89
2023/04/15 16:02:32;;;;;;;;;;;8.28;14.81;;;;;;2672545;76;20340;-88
2023/04/15 16:06:05;;;;;;;;;;;8.28;15.11;;;;;;2673553;76;20337;-88
2023/04/15 16:09:30;;;;;;;;;;;8.31;15.26;;;;;;2672490;76;20350;-89
2023/04/15 16:12:58;;;;;;;;;;;8.20;15.35;;;;;;2672388;76;20315;-89
2023/04/15 16:16:41;;;;;;;;;;;8.21;15.95;;;;;;2672222;76;20310;-88
2023/04/15 16:19:58;;;;;;;;;;;8.14;15.92;;;;;;2674071;76;20325;-89
2023/04/15 16:23:26;;;;;;;;;;;8.14;15.96;;;;;;2671867;76;20315;-89
2023/04/15 16:26:57;;;;;;;;;;;8.13;16.19;;;;;;2672873;76;20340;-89
2023/04/15 16:30:24;;;;;;;;;;;8.22;16.20;;;;;;2671861;76;20304;-88
2023/04/15 16:33:52;;;;;;;;;;;8.06;16.20;;;;;;2673768;76;20321;-89
2023/04/15 16:37:22;;;;;;;;;;;8.07;16.24;;;;;;2673313;76;20330;-89
2023/04/15 16:40:50;;;;;;;;;;;7.88;16.27;;;;;;2673734;76;20584;-89
2023/04/15 16:44:19;;;;;;;;;;;7.75;17.03;;;;;;2673717;76;20839;-87
2023/04/15 16:47:53;;;;;;;;;;;7.81;17.61;;;;;;2674009;76;20809;-88
2023/04/15 16:51:17;;;;;;;;;;;7.70;17.34;;;;;;2673957;76;20361;-88
2023/04/15 16:54:45;;;;;;;;;;;7.60;18.03;;;;;;2673941;76;20300;-88
2023/04/15 16:58:13;;;;;;;;;;;7.42;18.21;;;;;;2675134;76;20305;-88
2023/04/15 17:01:41;;;;;;;;;;;7.39;18.70;;;;;;2674729;76;20324;-88
2023/04/15 17:05:09;;;;;;;;;;;7.27;18.93;;;;;;2674208;76;20323;-89
2023/04/15 17:08:43;;;;;;;;;;;7.30;19.47;;;;;;2673448;76;20311;-89
2023/04/15 17:12:08;;;;;;;;;;;7.25;19.70;;;;;;2672835;76;20303;-89
2023/04/15 17:15:51;;;;;;;;;;;7.22;20.24;;;;;;2672530;76;20339;-90
2023/04/15 17:19:06;;;;;;;;;;;7.22;21.00;;;;;;2672948;76;20308;-91
2023/04/15 17:22:42;;;;;;;;;;;7.18;21.48;;;;;;2672604;76;20320;-91
2023/04/15 17:26:13;;;;;;;;;;;7.20;21.62;;;;;;2673924;76;20873;-92
2023/04/15 17:29:43;;;;;;;;;;;7.23;21.61;;;;;;2674130;76;20343;-92
2023/04/15 17:33:14;;;;;;;;;;;7.09;22.29;;;;;;2673978;76;20328;-91
2023/04/15 17:36:42;;;;;;;;;;;7.07;23.21;;;;;;2675716;76;20318;-92
2023/04/15 17:40:20;;;;;;;;;;;7.33;23.40;;;;;;2676673;76;20333;-92
2023/04/15 17:43:45;;;;;;;;;;;7.44;23.27;;;;;;2677344;76;20309;-92
2023/04/15 17:47:26;;;;;;;;;;;7.49;23.24;;;;;;2677767;76;20306;-92
2023/04/15 17:50:54;;;;;;;;;;;7.61;23.24;;;;;;2678062;76;20875;-92
2023/04/15 17:54:26;;;;;;;;;;;7.63;23.39;;;;;;2677439;76;20345;-92
2023/04/15 17:57:59;;;;;;;;;;;7.64;23.38;;;;;;2679338;76;20308;-92
2023/04/15 18:01:27;;;;;;;;;;;7.56;23.45;;;;;;2679780;76;20330;-92
2023/04/15 18:05:00;;;;;;;;;;;7.58;23.54;;;;;;2680774;76;20306;-92
2023/04/15 18:08:51;;;;;;;;;;;7.45;23.73;;;;;;2679261;76;20429;-92
2023/04/15 18:17:03;;;;;;;;;;;7.54;24.33;;;;;;2679364;76;20341;-92
2023/04/15 18:37:49;;;;;;;;;;;7.17;27.10;;;;;;2675406;75;20607;-91
2023/04/15 18:41:18;;;;;;;;;;;7.31;27.04;;;;;;2675830;75;20427;-90
2023/04/15 18:44:46;;;;;;;;;;;7.30;26.83;;;;;;2672914;75;20440;-90
2023/04/15 18:48:21;;;;;;;;;;;7.34;26.78;;;;;;2673501;76;20406;-90
2023/04/15 18:51:49;;;;;;;;;;;7.39;26.97;;;;;;2672282;76;20857;-90
2023/04/15 18:55:20;;;;;;;;;;;7.43;27.11;;;;;;2672317;76;20420;-90
2023/04/15 18:58:48;;;;;;;;;;;7.38;27.07;;;;;;2672819;76;20476;-90
2023/04/15 19:02:16;;;;;;;;;;;7.45;27.36;;;;;;2674156;76;20447;-90
2023/04/15 19:05:50;;;;;;;;;;;7.35;27.52;;;;;;2673101;76;20476;-90
2023/04/15 19:09:19;;;;;;;;;;;7.41;27.69;;;;;;2670461;76;20486;-90
2023/04/15 19:12:50;;;;;;;;;;;7.39;27.67;;;;;;2672781;76;20432;-90
2023/04/15 19:16:35;;;;;;;;;;;7.47;27.92;;;;;;2673234;75;20407;-90
2023/04/15 19:20:19;;;;;;;;;;;7.43;27.95;;;;;;2672308;76;20974;-90
2023/04/15 19:23:42;;;;;;;;;;;7.52;28.02;;;;;;2673354;76;20633;-90
2023/04/15 19:27:09;;;;;;;;;;;7.57;28.08;;;;;;2673447;75;20301;-90
2023/04/15 19:30:36;;;;;;;;;;;7.47;28.26;;;;;;2674085;76;20301;-90
2023/04/15 19:34:19;;;;;;;;;;;7.54;28.55;;;;;;2673924;75;20430;-90
2023/04/15 19:37:50;;;;;;;;;;;7.50;28.52;;;;;;2673707;76;20300;-90
2023/04/15 19:41:19;;;;;;;;;;;7.32;28.88;;;;;;2674253;76;20333;-90
2023/04/15 19:44:53;;;;;;;;;;;7.34;29.10;;;;;;2671446;76;20328;-90
2023/04/15 19:48:24;;;;;;;;;;;7.44;29.12;;;;;;2669391;75;20484;-91
2023/04/15 19:52:07;;;;;;;;;;;7.41;29.00;;;;;;2671041;76;21048;-90
2023/04/15 19:55:37;;;;;;;;;;;;;;;;;;;;;
2023/04/15 19:59:05;;;;;;;;;;;7.33;29.12;;;;;;2668370;76;20914;-92
2023/04/15 20:02:56;;;;;;;;;;;7.46;29.58;;;;;;2668722;76;20473;-91
2023/04/15 20:06:25;;;;;;;;;;;7.50;29.43;;;;;;2670143;76;20482;-91
2023/04/15 20:09:53;;;;;;;;;;;7.47;29.68;;;;;;2668548;76;20766;-91
2023/04/15 20:13:21;;;;;;;;;;;7.43;29.87;;;;;;2669947;76;21167;-91
2023/04/15 20:16:49;;;;;;;;;;;7.48;29.94;;;;;;2670898;76;20472;-90
2023/04/15 20:20:39;;;;;;;;;;;7.48;30.13;;;;;;2670647;76;20474;-91
2023/04/15 20:23:52;;;;;;;;;;;7.50;30.40;;;;;;2669904;76;20449;-90
2023/04/15 20:27:17;;;;;;;;;;;7.58;30.54;;;;;;2669784;76;20413;-90
2023/04/15 20:30:48;;;;;;;;;;;7.56;30.68;;;;;;2670759;76;20917;-91
2023/04/15 20:34:16;;;;;;;;;;;7.49;30.83;;;;;;2670001;76;20965;-91
2023/04/15 20:37:44;;;;;;;;;;;7.44;31.64;;;;;;2670043;76;20414;-91
2023/04/15 20:41:18;;;;;;;;;;;7.37;32.34;;;;;;2670878;76;21006;-91
2023/04/15 20:44:50;;;;;;;;;;;7.33;33.76;;;;;;2670600;76;20831;-91
2023/04/15 20:48:18;;;;;;;;;;;7.23;34.34;;;;;;2670520;76;20432;-91
2023/04/15 20:51:51;;;;;;;;;;;7.23;35.12;;;;;;2670709;76;20420;-91
2023/04/15 20:55:16;;;;;;;;;;;7.23;35.57;;;;;;2669498;76;20790;-92
2023/04/15 20:58:44;;;;;;;;;;;7.28;36.12;;;;;;2669921;76;20351;-92
2023/04/15 21:02:12;;;;;;;;;;;7.28;36.21;;;;;;2670369;76;20477;-92
2023/04/15 21:05:42;;;;;;;;;;;7.40;36.01;;;;;;2670268;76;20434;-92
2023/04/15 21:09:25;;;;;;;;;;;7.24;35.90;;;;;;2670864;76;20926;-92
2023/04/15 21:12:54;;;;;;;;;;;7.05;37.47;;;;;;2671120;76;20471;-91